sensor_id;sensor_type;location;lat;lon;timestamp;temperature;humidity
37658;DHT22;23500;53.268;8.308;2023-04-01T00:01:56;16.10;73.80
37658;DHT22;23500;53.268;8.308;2023-04-01T00:04:21;16.10;73.70
37658;DHT22;23500;53.268;8.308;2023-04-01T00:06:47;16.10;73.70
37658;DHT22;23500;53.268;8.308;2023-04-01T00:09:13;16.10;73.70
37658;DHT22;23500;53.268;8.308;2023-04-01T00:11:40;16.10;73.70
37658;DHT22;23500;53.268;8.308;2023-04-01T00:14:06;16.10;73.70
37658;DHT22;23500;53.268;8.308;2023-04-01T00:16:32;16.10;73.70
37658;DHT22;23500;53.268;8.308;2023-04-01T00:18:58;16.10;73.70
37658;DHT22;23500;53.268;8.308;2023-04-01T00:21:25;16.10;73.80
37658;DHT22;23500;53.268;8.308;2023-04-01T00:23:51;16.10;74.50
37658;DHT22;23500;53.268;8.308;2023-04-01T00:26:17;16.10;73.80
37658;DHT22;23500;53.268;8.308;2023-04-01T00:28:45;16.10;73.80
37658;DHT22;23500;53.268;8.308;2023-04-01T00:31:12;16.10;73.80
37658;DHT22;23500;53.268;8.308;2023-04-01T00:33:39;16.00;73.80
37658;DHT22;23500;53.268;8.308;2023-04-01T00:36:14;16.00;73.90
37658;DHT22;23500;53.268;8.308;2023-04-01T00:38:41;16.00;73.70
37658;DHT22;23500;53.268;8.308;2023-04-01T00:41:09;16.10;73.80
37658;DHT22;23500;53.268;8.308;2023-04-01T00:43:40;16.10;73.70
37658;DHT22;23500;53.268;8.308;2023-04-01T00:46:06;16.10;73.70
37658;DHT22;23500;53.268;8.308;2023-04-01T00:48:36;16.00;73.70
37658;DHT22;23500;53.268;8.308;2023-04-01T00:51:32;16.10;73.80
37658;DHT22;23500;53.268;8.308;2023-04-01T00:54:00;16.00;73.80
37658;DHT22;23500;53.268;8.308;2023-04-01T00:56:36;16.00;73.80
37658;DHT22;23500;53.268;8.308;2023-04-01T00:59:15;16.00;73.80
37658;DHT22;23500;53.268;8.308;2023-04-01T01:01:41;16.00;73.90
37658;DHT22;23500;53.268;8.308;2023-04-01T01:04:19;16.00;73.80
37658;DHT22;23500;53.268;8.308;2023-04-01T01:12:40;16.00;73.90
37658;DHT22;23500;53.268;8.308;2023-04-01T01:17:50;16.00;74.00
37658;DHT22;23500;53.268;8.308;2023-04-01T01:28:51;16.00;74.10
37658;DHT22;23500;53.268;8.308;2023-04-01T01:37:17;16.00;74.20
37658;DHT22;23500;53.268;8.308;2023-04-01T01:39:48;16.00;74.20
37658;DHT22;23500;53.268;8.308;2023-04-01T01:42:17;16.00;74.20
37658;DHT22;23500;53.268;8.308;2023-04-01T01:44:45;15.90;74.10
37658;DHT22;23500;53.268;8.308;2023-04-01T01:47:13;15.90;74.10
37658;DHT22;23500;53.268;8.308;2023-04-01T01:49:42;16.00;74.10
37658;DHT22;23500;53.268;8.308;2023-04-01T01:52:08;15.90;74.10
37658;DHT22;23500;53.268;8.308;2023-04-01T01:54:35;16.00;74.10
37658;DHT22;23500;53.268;8.308;2023-04-01T01:57:09;16.00;74.10
37658;DHT22;23500;53.268;8.308;2023-04-01T01:59:37;16.00;74.10
37658;DHT22;23500;53.268;8.308;2023-04-01T02:02:05;15.90;74.00
37658;DHT22;23500;53.268;8.308;2023-04-01T02:04:38;16.00;74.00
37658;DHT22;23500;53.268;8.308;2023-04-01T02:07:10;16.00;74.10
37658;DHT22;23500;53.268;8.308;2023-04-01T02:09:38;16.00;74.10
37658;DHT22;23500;53.268;8.308;2023-04-01T02:12:06;16.00;74.10
37658;DHT22;23500;53.268;8.308;2023-04-01T02:14:54;16.00;74.10
37658;DHT22;23500;53.268;8.308;2023-04-01T02:17:23;16.00;74.20
37658;DHT22;23500;53.268;8.308;2023-04-01T02:20:09;16.00;74.00
37658;DHT22;23500;53.268;8.308;2023-04-01T02:23:03;15.90;74.10
37658;DHT22;23500;53.268;8.308;2023-04-01T02:25:32;16.00;74.20
37658;DHT22;23500;53.268;8.308;2023-04-01T02:28:00;16.00;74.10
37658;DHT22;23500;53.268;8.308;2023-04-01T02:30:27;15.90;74.10
37658;DHT22;23500;53.268;8.308;2023-04-01T02:32:55;16.00;74.20
37658;DHT22;23500;53.268;8.308;2023-04-01T02:35:22;15.90;74.10
37658;DHT22;23500;53.268;8.308;2023-04-01T02:37:49;16.00;74.20
37658;DHT22;23500;53.268;8.308;2023-04-01T02:40:16;15.90;74.20
37658;DHT22;23500;53.268;8.308;2023-04-01T02:42:42;15.90;74.10
37658;DHT22;23500;53.268;8.308;2023-04-01T02:45:08;16.00;74.20
37658;DHT22;23500;53.268;8.308;2023-04-01T02:47:34;15.90;74.10
37658;DHT22;23500;53.268;8.308;2023-04-01T02:50:00;16.00;74.10
37658;DHT22;23500;53.268;8.308;2023-04-01T02:52:27;15.90;74.10
37658;DHT22;23500;53.268;8.308;2023-04-01T02:54:53;16.00;74.10
37658;DHT22;23500;53.268;8.308;2023-04-01T02:57:18;16.00;74.10
37658;DHT22;23500;53.268;8.308;2023-04-01T02:59:44;15.90;74.00
37658;DHT22;23500;53.268;8.308;2023-04-01T03:02:10;16.00;74.10
37658;DHT22;23500;53.268;8.308;2023-04-01T03:04:35;16.00;74.10
37658;DHT22;23500;53.268;8.308;2023-04-01T03:07:01;15.90;74.10
37658;DHT22;23500;53.268;8.308;2023-04-01T03:09:27;15.90;74.10
37658;DHT22;23500;53.268;8.308;2023-04-01T03:11:54;15.90;74.00
37658;DHT22;23500;53.268;8.308;2023-04-01T03:14:19;16.00;74.10
37658;DHT22;23500;53.268;8.308;2023-04-01T03:16:45;15.90;74.10
37658;DHT22;23500;53.268;8.308;2023-04-01T03:19:11;15.90;74.10
37658;DHT22;23500;53.268;8.308;2023-04-01T03:21:37;15.90;74.10
37658;DHT22;23500;53.268;8.308;2023-04-01T03:24:03;15.90;74.10
37658;DHT22;23500;53.268;8.308;2023-04-01T03:26:28;15.90;74.00
37658;DHT22;23500;53.268;8.308;2023-04-01T03:28:54;15.90;74.10
37658;DHT22;23500;53.268;8.308;2023-04-01T03:31:21;15.90;74.00
37658;DHT22;23500;53.268;8.308;2023-04-01T03:33:46;15.90;74.00
37658;DHT22;23500;53.268;8.308;2023-04-01T03:36:12;15.90;74.10
37658;DHT22;23500;53.268;8.308;2023-04-01T03:38:41;15.90;74.10
37658;DHT22;23500;53.268;8.308;2023-04-01T03:41:12;15.90;74.10
37658;DHT22;23500;53.268;8.308;2023-04-01T03:43:37;15.90;74.10
37658;DHT22;23500;53.268;8.308;2023-04-01T03:46:03;15.90;74.20
37658;DHT22;23500;53.268;8.308;2023-04-01T03:48:28;15.90;74.20
37658;DHT22;23500;53.268;8.308;2023-04-01T03:50:54;15.90;74.20
37658;DHT22;23500;53.268;8.308;2023-04-01T03:53:20;15.90;74.10
37658;DHT22;23500;53.268;8.308;2023-04-01T03:55:46;15.90;74.20
37658;DHT22;23500;53.268;8.308;2023-04-01T03:58:12;15.90;74.20
37658;DHT22;23500;53.268;8.308;2023-04-01T04:00:38;15.90;74.10
37658;DHT22;23500;53.268;8.308;2023-04-01T04:03:03;15.90;74.20
37658;DHT22;23500;53.268;8.308;2023-04-01T04:05:30;15.90;74.20
37658;DHT22;23500;53.268;8.308;2023-04-01T04:07:56;15.90;74.20
37658;DHT22;23500;53.268;8.308;2023-04-01T04:10:22;15.90;74.10
37658;DHT22;23500;53.268;8.308;2023-04-01T04:12:49;15.90;74.20
37658;DHT22;23500;53.268;8.308;2023-04-01T04:15:15;15.90;74.20
37658;DHT22;23500;53.268;8.308;2023-04-01T04:17:41;15.90;74.20
37658;DHT22;23500;53.268;8.308;2023-04-01T04:20:07;15.90;74.20
37658;DHT22;23500;53.268;8.308;2023-04-01T04:22:33;15.90;74.20
37658;DHT22;23500;53.268;8.308;2023-04-01T04:24:59;15.90;74.20
37658;DHT22;23500;53.268;8.308;2023-04-01T04:27:24;15.90;74.20
37658;DHT22;23500;53.268;8.308;2023-04-01T04:29:50;15.90;74.20
37658;DHT22;23500;53.268;8.308;2023-04-01T04:32:16;15.90;74.20
37658;DHT22;23500;53.268;8.308;2023-04-01T04:34:41;15.90;74.20
37658;DHT22;23500;53.268;8.308;2023-04-01T04:37:07;15.80;74.10
37658;DHT22;23500;53.268;8.308;2023-04-01T04:39:32;15.90;74.20
37658;DHT22;23500;53.268;8.308;2023-04-01T04:41:58;15.90;74.20
37658;DHT22;23500;53.268;8.308;2023-04-01T04:44:24;15.90;74.20
37658;DHT22;23500;53.268;8.308;2023-04-01T04:46:49;15.80;74.10
37658;DHT22;23500;53.268;8.308;2023-04-01T04:49:15;15.90;74.20
37658;DHT22;23500;53.268;8.308;2023-04-01T04:51:41;15.90;74.20
37658;DHT22;23500;53.268;8.308;2023-04-01T04:54:07;15.90;74.20
37658;DHT22;23500;53.268;8.308;2023-04-01T04:56:32;15.90;74.20
37658;DHT22;23500;53.268;8.308;2023-04-01T04:58:59;15.80;74.20
37658;DHT22;23500;53.268;8.308;2023-04-01T05:01:24;15.90;74.20
37658;DHT22;23500;53.268;8.308;2023-04-01T05:03:50;15.90;74.20
37658;DHT22;23500;53.268;8.308;2023-04-01T05:06:17;15.90;74.20
37658;DHT22;23500;53.268;8.308;2023-04-01T05:08:44;15.90;74.20
37658;DHT22;23500;53.268;8.308;2023-04-01T05:11:13;15.80;74.20
37658;DHT22;23500;53.268;8.308;2023-04-01T05:13:39;15.80;74.20
37658;DHT22;23500;53.268;8.308;2023-04-01T05:16:12;15.80;74.20
37658;DHT22;23500;53.268;8.308;2023-04-01T05:18:38;15.80;74.20
37658;DHT22;23500;53.268;8.308;2023-04-01T05:21:06;15.80;74.20
37658;DHT22;23500;53.268;8.308;2023-04-01T05:23:32;15.80;74.20
37658;DHT22;23500;53.268;8.308;2023-04-01T05:25:58;15.90;74.20
37658;DHT22;23500;53.268;8.308;2023-04-01T05:28:27;15.80;74.20
37658;DHT22;23500;53.268;8.308;2023-04-01T05:30:53;15.80;74.20
37658;DHT22;23500;53.268;8.308;2023-04-01T05:33:19;15.80;74.20
37658;DHT22;23500;53.268;8.308;2023-04-01T05:35:44;15.80;74.20
37658;DHT22;23500;53.268;8.308;2023-04-01T05:38:10;15.80;74.20
37658;DHT22;23500;53.268;8.308;2023-04-01T05:40:35;15.80;74.20
37658;DHT22;23500;53.268;8.308;2023-04-01T05:43:01;15.80;74.20
37658;DHT22;23500;53.268;8.308;2023-04-01T05:45:27;15.90;74.30
37658;DHT22;23500;53.268;8.308;2023-04-01T05:47:53;15.80;74.10
37658;DHT22;23500;53.268;8.308;2023-04-01T05:50:19;15.90;74.20
37658;DHT22;23500;53.268;8.308;2023-04-01T05:52:45;15.90;74.10
37658;DHT22;23500;53.268;8.308;2023-04-01T05:55:10;15.90;74.10
37658;DHT22;23500;53.268;8.308;2023-04-01T05:57:36;15.90;74.10
37658;DHT22;23500;53.268;8.308;2023-04-01T06:00:03;15.90;74.00
37658;DHT22;23500;53.268;8.308;2023-04-01T06:02:29;15.90;74.00
37658;DHT22;23500;53.268;8.308;2023-04-01T06:05:36;15.90;74.00
37658;DHT22;23500;53.268;8.308;2023-04-01T06:08:21;15.90;74.00
37658;DHT22;23500;53.268;8.308;2023-04-01T06:11:21;15.90;74.00
37658;DHT22;23500;53.268;8.308;2023-04-01T06:17:05;15.90;74.00
37658;DHT22;23500;53.268;8.308;2023-04-01T06:22:17;15.90;74.00
37658;DHT22;23500;53.268;8.308;2023-04-01T06:28:22;15.90;74.10
37658;DHT22;23500;53.268;8.308;2023-04-01T06:39:12;15.80;74.90
37658;DHT22;23500;53.268;8.308;2023-04-01T06:47:42;15.90;74.80
37658;DHT22;23500;53.268;8.308;2023-04-01T06:50:35;15.90;74.10
37658;DHT22;23500;53.268;8.308;2023-04-01T06:53:40;15.90;74.70
37658;DHT22;23500;53.268;8.308;2023-04-01T06:56:18;15.90;74.00
37658;DHT22;23500;53.268;8.308;2023-04-01T07:01:58;15.90;73.90
37658;DHT22;23500;53.268;8.308;2023-04-01T07:04:32;15.90;73.80
37658;DHT22;23500;53.268;8.308;2023-04-01T07:07:05;15.90;73.80
37658;DHT22;23500;53.268;8.308;2023-04-01T07:09:38;15.90;73.80
37658;DHT22;23500;53.268;8.308;2023-04-01T07:12:12;15.90;73.80
37658;DHT22;23500;53.268;8.308;2023-04-01T07:14:42;16.00;73.80
37658;DHT22;23500;53.268;8.308;2023-04-01T07:17:15;16.00;73.70
37658;DHT22;23500;53.268;8.308;2023-04-01T07:20:02;16.00;73.60
37658;DHT22;23500;53.268;8.308;2023-04-01T07:22:34;16.10;73.50
37658;DHT22;23500;53.268;8.308;2023-04-01T07:25:22;16.10;73.30
37658;DHT22;23500;53.268;8.308;2023-04-01T07:27:53;16.10;73.30
37658;DHT22;23500;53.268;8.308;2023-04-01T07:30:23;16.10;73.30
37658;DHT22;23500;53.268;8.308;2023-04-01T07:33:01;16.10;73.20
37658;DHT22;23500;53.268;8.308;2023-04-01T07:35:39;16.10;73.30
37658;DHT22;23500;53.268;8.308;2023-04-01T07:51:29;16.10;73.40
37658;DHT22;23500;53.268;8.308;2023-04-01T07:54:19;16.00;73.30
37658;DHT22;23500;53.268;8.308;2023-04-01T07:57:14;16.00;73.40
37658;DHT22;23500;53.268;8.308;2023-04-01T08:05:28;16.10;73.10
37658;DHT22;23500;53.268;8.308;2023-04-01T08:08:09;16.20;73.00
37658;DHT22;23500;53.268;8.308;2023-04-01T08:14:05;16.20;72.90
37658;DHT22;23500;53.268;8.308;2023-04-01T08:16:31;16.20;72.80
37658;DHT22;23500;53.268;8.308;2023-04-01T08:22:20;16.20;72.90
37658;DHT22;23500;53.268;8.308;2023-04-01T08:24:49;16.20;72.90
37658;DHT22;23500;53.268;8.308;2023-04-01T08:29:58;16.20;72.90
37658;DHT22;23500;53.268;8.308;2023-04-01T08:32:36;16.20;72.90
37658;DHT22;23500;53.268;8.308;2023-04-01T08:35:26;16.20;72.90
37658;DHT22;23500;53.268;8.308;2023-04-01T08:37:50;16.20;72.90
37658;DHT22;23500;53.268;8.308;2023-04-01T08:56:56;16.00;72.70
37658;DHT22;23500;53.268;8.308;2023-04-01T09:05:26;16.00;72.50
37658;DHT22;23500;53.268;8.308;2023-04-01T09:08:25;16.00;72.60
37658;DHT22;23500;53.268;8.308;2023-04-01T09:13:25;16.00;72.50
37658;DHT22;23500;53.268;8.308;2023-04-01T09:19:19;16.00;72.50
37658;DHT22;23500;53.268;8.308;2023-04-01T09:30:40;16.00;72.40
37658;DHT22;23500;53.268;8.308;2023-04-01T09:38:57;16.00;72.40
37658;DHT22;23500;53.268;8.308;2023-04-01T09:41:29;16.10;72.30
37658;DHT22;23500;53.268;8.308;2023-04-01T09:44:22;16.10;72.30
37658;DHT22;23500;53.268;8.308;2023-04-01T09:46:58;16.10;71.90
37658;DHT22;23500;53.268;8.308;2023-04-01T09:52:23;16.10;71.80
37658;DHT22;23500;53.268;8.308;2023-04-01T10:19:55;16.10;71.60
37658;DHT22;23500;53.268;8.308;2023-04-01T10:26:17;16.10;71.60
37658;DHT22;23500;53.268;8.308;2023-04-01T10:53:38;16.10;71.40
37658;DHT22;23500;53.268;8.308;2023-04-01T10:59:31;16.00;71.50
37658;DHT22;23500;53.268;8.308;2023-04-01T11:25:16;16.10;70.60
37658;DHT22;23500;53.268;8.308;2023-04-01T11:35:47;16.10;70.50
37658;DHT22;23500;53.268;8.308;2023-04-01T11:49:40;16.00;70.10
37658;DHT22;23500;53.268;8.308;2023-04-01T12:00:20;16.00;70.00
37658;DHT22;23500;53.268;8.308;2023-04-01T12:08:28;16.00;71.50
37658;DHT22;23500;53.268;8.308;2023-04-01T12:13:42;15.90;70.70
37658;DHT22;23500;53.268;8.308;2023-04-01T12:16:46;16.00;70.60
37658;DHT22;23500;53.268;8.308;2023-04-01T12:22:50;16.00;70.70
37658;DHT22;23500;53.268;8.308;2023-04-01T12:28:29;16.00;70.40
37658;DHT22;23500;53.268;8.308;2023-04-01T12:34:18;16.00;70.10
37658;DHT22;23500;53.268;8.308;2023-04-01T12:40:20;16.00;69.90
37658;DHT22;23500;53.268;8.308;2023-04-01T12:43:05;16.00;69.80
37658;DHT22;23500;53.268;8.308;2023-04-01T12:45:45;16.10;69.90
37658;DHT22;23500;53.268;8.308;2023-04-01T13:02:07;16.00;70.30
37658;DHT22;23500;53.268;8.308;2023-04-01T13:05:09;16.00;70.30
37658;DHT22;23500;53.268;8.308;2023-04-01T13:08:05;16.00;70.80
37658;DHT22;23500;53.268;8.308;2023-04-01T13:19:24;16.10;70.20
37658;DHT22;23500;53.268;8.308;2023-04-01T13:24:37;16.10;69.70
37658;DHT22;23500;53.268;8.308;2023-04-01T13:30:31;16.00;70.40
37658;DHT22;23500;53.268;8.308;2023-04-01T13:33:19;16.00;69.70
37658;DHT22;23500;53.268;8.308;2023-04-01T13:44:28;16.00;70.40
37658;DHT22;23500;53.268;8.308;2023-04-01T13:58:56;15.90;70.00
37658;DHT22;23500;53.268;8.308;2023-04-01T14:01:35;15.90;70.10
37658;DHT22;23500;53.268;8.308;2023-04-01T14:04:33;15.90;70.40
37658;DHT22;23500;53.268;8.308;2023-04-01T14:07:32;15.80;70.40
37658;DHT22;23500;53.268;8.308;2023-04-01T14:13:18;15.80;70.60
37658;DHT22;23500;53.268;8.308;2023-04-01T14:27:26;15.80;70.40
37658;DHT22;23500;53.268;8.308;2023-04-01T14:52:16;15.60;70.10
37658;DHT22;23500;53.268;8.308;2023-04-01T14:54:44;15.60;69.60
37658;DHT22;23500;53.268;8.308;2023-04-01T14:57:20;15.60;69.10
37658;DHT22;23500;53.268;8.308;2023-04-01T14:59:59;15.60;70.20
37658;DHT22;23500;53.268;8.308;2023-04-01T15:02:37;15.60;70.50
37658;DHT22;23500;53.268;8.308;2023-04-01T15:05:31;15.50;70.30
37658;DHT22;23500;53.268;8.308;2023-04-01T15:11:35;15.50;70.10
37658;DHT22;23500;53.268;8.308;2023-04-01T15:14:08;15.50;69.80
37658;DHT22;23500;53.268;8.308;2023-04-01T15:22:29;15.40;70.00
37658;DHT22;23500;53.268;8.308;2023-04-01T15:25:22;15.40;70.90
37658;DHT22;23500;53.268;8.308;2023-04-01T15:31:04;15.40;70.20
37658;DHT22;23500;53.268;8.308;2023-04-01T15:39:11;15.40;71.20
37658;DHT22;23500;53.268;8.308;2023-04-01T15:42:10;15.40;70.60
37658;DHT22;23500;53.268;8.308;2023-04-01T15:44:43;15.30;70.70
37658;DHT22;23500;53.268;8.308;2023-04-01T15:59:12;15.30;70.50
37658;DHT22;23500;53.268;8.308;2023-04-01T16:07:04;15.30;70.50
37658;DHT22;23500;53.268;8.308;2023-04-01T16:09:39;15.30;71.20
37658;DHT22;23500;53.268;8.308;2023-04-01T16:15:28;15.20;70.90
37658;DHT22;23500;53.268;8.308;2023-04-01T16:23:02;15.20;70.30
37658;DHT22;23500;53.268;8.308;2023-04-01T16:31:09;15.20;70.30
37658;DHT22;23500;53.268;8.308;2023-04-01T16:33:49;15.20;71.40
37658;DHT22;23500;53.268;8.308;2023-04-01T16:41:52;15.10;71.30
37658;DHT22;23500;53.268;8.308;2023-04-01T16:44:25;15.10;71.20
37658;DHT22;23500;53.268;8.308;2023-04-01T16:46:57;15.10;71.00
37658;DHT22;23500;53.268;8.308;2023-04-01T16:49:42;15.20;70.60
37658;DHT22;23500;53.268;8.308;2023-04-01T16:57:27;15.10;71.10
37658;DHT22;23500;53.268;8.308;2023-04-01T17:00:02;15.10;71.60
37658;DHT22;23500;53.268;8.308;2023-04-01T17:02:35;15.10;70.70
37658;DHT22;23500;53.268;8.308;2023-04-01T17:05:08;15.10;70.80
37658;DHT22;23500;53.268;8.308;2023-04-01T17:18:27;15.00;71.10
37658;DHT22;23500;53.268;8.308;2023-04-01T17:23:52;15.00;71.80
37658;DHT22;23500;53.268;8.308;2023-04-01T17:28:52;15.00;71.50
37658;DHT22;23500;53.268;8.308;2023-04-01T17:40:15;15.00;72.10
37658;DHT22;23500;53.268;8.308;2023-04-01T17:45:47;14.90;71.70
37658;DHT22;23500;53.268;8.308;2023-04-01T17:58:48;14.90;78.70
37658;DHT22;23500;53.268;8.308;2023-04-01T18:01:42;14.90;79.20
37658;DHT22;23500;53.268;8.308;2023-04-01T18:04:31;14.90;81.50
37658;DHT22;23500;53.268;8.308;2023-04-01T18:15:19;14.80;70.80
37658;DHT22;23500;53.268;8.308;2023-04-01T18:26:24;14.80;71.60
37658;DHT22;23500;53.268;8.308;2023-04-01T18:28:54;14.80;71.80
37658;DHT22;23500;53.268;8.308;2023-04-01T18:31:25;14.80;71.20
37658;DHT22;23500;53.268;8.308;2023-04-01T18:36:55;14.80;71.50
37658;DHT22;23500;53.268;8.308;2023-04-01T18:47:38;14.80;72.30
37658;DHT22;23500;53.268;8.308;2023-04-01T18:50:22;14.70;72.10
37658;DHT22;23500;53.268;8.308;2023-04-01T18:52:56;14.80;71.20
37658;DHT22;23500;53.268;8.308;2023-04-01T19:03:25;14.70;71.10
37658;DHT22;23500;53.268;8.308;2023-04-01T19:06:01;14.70;71.70
37658;DHT22;23500;53.268;8.308;2023-04-01T19:08:39;14.70;71.70
37658;DHT22;23500;53.268;8.308;2023-04-01T19:17:08;14.70;71.90
37658;DHT22;23500;53.268;8.308;2023-04-01T19:30:58;14.70;71.50
37658;DHT22;23500;53.268;8.308;2023-04-01T19:39:23;14.70;70.90
37658;DHT22;23500;53.268;8.308;2023-04-01T19:42:09;14.60;71.80
37658;DHT22;23500;53.268;8.308;2023-04-01T19:47:48;14.60;72.20
37658;DHT22;23500;53.268;8.308;2023-04-01T19:56:01;14.60;72.30
37658;DHT22;23500;53.268;8.308;2023-04-01T19:58:45;14.60;71.80
37658;DHT22;23500;53.268;8.308;2023-04-01T20:01:20;14.60;72.10
37658;DHT22;23500;53.268;8.308;2023-04-01T20:03:55;14.60;71.20
37658;DHT22;23500;53.268;8.308;2023-04-01T20:06:49;14.60;72.20
37658;DHT22;23500;53.268;8.308;2023-04-01T20:14:35;14.60;72.10
37658;DHT22;23500;53.268;8.308;2023-04-01T20:25:33;14.60;71.30
37658;DHT22;23500;53.268;8.308;2023-04-01T20:50:18;14.50;71.70
37658;DHT22;23500;53.268;8.308;2023-04-01T20:53:32;14.50;72.20
37658;DHT22;23500;53.268;8.308;2023-04-01T20:56:22;14.50;71.50
37658;DHT22;23500;53.268;8.308;2023-04-01T20:59:21;14.50;72.50
37658;DHT22;23500;53.268;8.308;2023-04-01T21:13:02;14.50;72.20
37658;DHT22;23500;53.268;8.308;2023-04-01T21:20:57;14.40;71.40
37658;DHT22;23500;53.268;8.308;2023-04-01T21:26:12;14.40;72.10
37658;DHT22;23500;53.268;8.308;2023-04-01T21:31:43;14.40;72.00
37658;DHT22;23500;53.268;8.308;2023-04-01T21:34:25;14.40;71.70
37658;DHT22;23500;53.268;8.308;2023-04-01T21:37:36;14.40;71.40
37658;DHT22;23500;53.268;8.308;2023-04-01T22:00:49;14.40;71.10
37658;DHT22;23500;53.268;8.308;2023-04-01T22:06:29;14.40;71.80
37658;DHT22;23500;53.268;8.308;2023-04-01T22:17:18;14.30;71.40
37658;DHT22;23500;53.268;8.308;2023-04-01T22:20:16;14.30;71.50
37658;DHT22;23500;53.268;8.308;2023-04-01T22:28:29;14.30;71.60
37658;DHT22;23500;53.268;8.308;2023-04-01T22:31:02;14.30;71.50
37658;DHT22;23500;53.268;8.308;2023-04-01T22:43:57;14.30;73.40
37658;DHT22;23500;53.268;8.308;2023-04-01T22:49:20;14.30;72.30
37658;DHT22;23500;53.268;8.308;2023-04-01T22:54:39;14.30;72.60
37658;DHT22;23500;53.268;8.308;2023-04-01T22:57:44;14.30;72.90
37658;DHT22;23500;53.268;8.308;2023-04-01T23:00:33;14.30;72.10
37658;DHT22;23500;53.268;8.308;2023-04-01T23:03:22;14.30;71.70
37658;DHT22;23500;53.268;8.308;2023-04-01T23:05:53;14.20;72.30
37658;DHT22;23500;53.268;8.308;2023-04-01T23:08:52;14.20;71.60
37658;DHT22;23500;53.268;8.308;2023-04-01T23:11:31;14.20;72.90
37658;DHT22;23500;53.268;8.308;2023-04-01T23:16:40;14.20;72.60
37658;DHT22;23500;53.268;8.308;2023-04-01T23:22:12;14.20;72.70
37658;DHT22;23500;53.268;8.308;2023-04-01T23:24:45;14.20;73.10
37658;DHT22;23500;53.268;8.308;2023-04-01T23:28:14;14.20;72.40
37658;DHT22;23500;53.268;8.308;2023-04-01T23:35:50;14.20;72.90
37658;DHT22;23500;53.268;8.308;2023-04-01T23:38:17;14.10;76.20
37658;DHT22;23500;53.268;8.308;2023-04-01T23:40:43;14.20;76.80
37658;DHT22;23500;53.268;8.308;2023-04-01T23:43:34;14.10;76.40
37658;DHT22;23500;53.268;8.308;2023-04-01T23:46:02;14.10;73.80
37658;DHT22;23500;53.268;8.308;2023-04-01T23:48:40;14.10;73.20
37658;DHT22;23500;53.268;8.308;2023-04-01T23:53:46;14.10;73.20
37658;DHT22;23500;53.268;8.308;2023-04-01T23:56:16;14.10;74.30
37658;DHT22;23500;53.268;8.308;2023-04-01T23:58:49;14.10;72.60
